Time;durP1;ratioP1;P1;durP2;ratioP2;P2;SDS_P1;SDS_P2;PMS_P1;PMS_P2;Temp;Humidity;BMP_temperature;BMP_pressure;BME280_temperature;BME280_humidity;BME280_pressure;Samples;Min_cycle;Max_cycle;Signal;HPM_P1;HPM_P2
2023/11/11 00:00:53;;;;;;;21.53;20.10;;;;;;;;;;5113348;28;20439;-77
2023/11/11 00:03:20;;;;;;;20.83;19.50;;;;;;;;;;5113294;28;20531;-77
2023/11/11 00:05:47;;;;;;;21.63;20.13;;;;;;;;;;5112740;28;20842;-77
2023/11/11 00:08:14;;;;;;;21.17;20.00;;;;;;;;;;5112264;28;20478;-77
2023/11/11 00:10:41;;;;;;;22.00;20.43;;;;;;;;;;5112435;28;20456;-78
2023/11/11 00:13:10;;;;;;;21.83;20.30;;;;;;;;;;5112929;28;20444;-77
2023/11/11 00:15:37;;;;;;;23.17;21.20;;;;;;;;;;5112450;28;20517;-77
2023/11/11 00:18:04;;;;;;;22.43;21.03;;;;;;;;;;5112367;28;20463;-77
2023/11/11 00:20:31;;;;;;;22.10;20.60;;;;;;;;;;5112593;28;20418;-78
2023/11/11 00:22:58;;;;;;;22.57;21.23;;;;;;;;;;5112997;28;20450;-78
2023/11/11 00:25:25;;;;;;;22.87;21.43;;;;;;;;;;5112304;28;20425;-77
2023/11/11 00:27:52;;;;;;;23.80;22.27;;;;;;;;;;5112166;28;20971;-77
2023/11/11 00:30:22;;;;;;;24.47;22.90;;;;;;;;;;5112640;28;20527;-79
2023/11/11 00:32:51;;;;;;;25.30;23.17;;;;;;;;;;5112355;28;20821;-77
2023/11/11 00:35:18;;;;;;;24.60;23.00;;;;;;;;;;5112222;28;20515;-78
2023/11/11 00:37:46;;;;;;;24.07;22.17;;;;;;;;;;5112135;28;21173;-78
2023/11/11 00:40:13;;;;;;;23.40;21.60;;;;;;;;;;5111580;28;20529;-77
2023/11/11 00:42:41;;;;;;;23.93;22.03;;;;;;;;;;5112517;28;20430;-78
2023/11/11 00:45:09;;;;;;;23.90;22.30;;;;;;;;;;5111843;28;20466;-77
2023/11/11 00:47:38;;;;;;;23.70;22.00;;;;;;;;;;5112299;28;20511;-76
2023/11/11 00:50:06;;;;;;;24.50;22.20;;;;;;;;;;5112217;28;20468;-78
2023/11/11 00:52:34;;;;;;;24.80;23.20;;;;;;;;;;5112094;28;20551;-77
2023/11/11 00:55:01;;;;;;;24.03;22.50;;;;;;;;;;5111560;28;20483;-78
2023/11/11 00:57:28;;;;;;;24.87;22.97;;;;;;;;;;5111128;28;20478;-77
2023/11/11 00:59:55;;;;;;;24.73;23.33;;;;;;;;;;5112045;28;20447;-78
2023/11/11 01:02:23;;;;;;;25.77;23.80;;;;;;;;;;5111716;28;21228;-78
2023/11/11 01:04:51;;;;;;;25.43;23.50;;;;;;;;;;5111565;28;20475;-76
2023/11/11 01:07:18;;;;;;;24.87;23.37;;;;;;;;;;5111693;28;20513;-77
2023/11/11 01:09:45;;;;;;;24.80;23.17;;;;;;;;;;5112138;28;20552;-77
2023/11/11 01:12:13;;;;;;;26.70;24.60;;;;;;;;;;5111417;28;20533;-78
2023/11/11 01:14:41;;;;;;;27.30;24.57;;;;;;;;;;5111167;28;20947;-77
2023/11/11 01:17:09;;;;;;;25.63;23.53;;;;;;;;;;5112036;28;20467;-77
2023/11/11 01:19:36;;;;;;;26.97;25.37;;;;;;;;;;5111975;28;20979;-77
2023/11/11 01:22:05;;;;;;;37.53;35.00;;;;;;;;;;5111695;28;20448;-78
2023/11/11 01:24:32;;;;;;;49.73;45.33;;;;;;;;;;5111179;28;20426;-77
2023/11/11 01:26:59;;;;;;;73.70;68.20;;;;;;;;;;5111616;28;20479;-77
2023/11/11 01:29:26;;;;;;;69.67;65.37;;;;;;;;;;5110844;28;20458;-78
2023/11/11 01:31:53;;;;;;;64.67;61.13;;;;;;;;;;5111538;28;20819;-77
2023/11/11 01:34:20;;;;;;;78.93;73.30;;;;;;;;;;5111124;28;20444;-78
2023/11/11 01:36:48;;;;;;;76.53;72.03;;;;;;;;;;5111394;28;20484;-78
2023/11/11 01:39:16;;;;;;;84.93;79.70;;;;;;;;;;5111650;28;20454;-78
2023/11/11 01:41:43;;;;;;;77.93;73.67;;;;;;;;;;5112053;28;20828;-79
2023/11/11 01:44:11;;;;;;;72.07;67.60;;;;;;;;;;5111477;28;20447;-79
2023/11/11 01:46:38;;;;;;;75.70;71.10;;;;;;;;;;5112136;28;20444;-78
2023/11/11 01:49:06;;;;;;;74.23;68.60;;;;;;;;;;5111759;28;20866;-79
2023/11/11 01:51:33;;;;;;;80.53;76.23;;;;;;;;;;5112973;28;20520;-78
2023/11/11 01:54:02;;;;;;;79.53;75.13;;;;;;;;;;5112405;28;20930;-80
2023/11/11 01:56:31;;;;;;;86.43;81.63;;;;;;;;;;5113285;28;20422;-79
2023/11/11 01:58:58;;;;;;;79.60;75.30;;;;;;;;;;5112750;28;20497;-79
2023/11/11 02:01:25;;;;;;;83.90;79.40;;;;;;;;;;5112126;28;20471;-78
2023/11/11 02:03:52;;;;;;;79.40;74.93;;;;;;;;;;5111472;28;20451;-78
2023/11/11 02:06:19;;;;;;;78.37;74.30;;;;;;;;;;5112413;28;20471;-78
2023/11/11 02:08:47;;;;;;;76.00;71.20;;;;;;;;;;5112770;28;20483;-81
2023/11/11 02:11:14;;;;;;;70.47;66.53;;;;;;;;;;5114546;28;20426;-78
2023/11/11 02:13:43;;;;;;;69.27;64.70;;;;;;;;;;5114469;28;20783;-81
2023/11/11 02:16:10;;;;;;;70.57;66.77;;;;;;;;;;5114845;28;20457;-79
2023/11/11 02:18:38;;;;;;;67.77;64.00;;;;;;;;;;5114323;28;20447;-79
2023/11/11 02:21:05;;;;;;;69.77;65.77;;;;;;;;;;5113498;28;20806;-80
2023/11/11 02:23:35;;;;;;;67.70;61.70;;;;;;;;;;5114560;28;20487;-78
2023/11/11 02:26:02;;;;;;;65.03;61.53;;;;;;;;;;5113779;28;20457;-79
2023/11/11 02:28:29;;;;;;;65.00;61.43;;;;;;;;;;5114287;28;20468;-80
2023/11/11 02:30:56;;;;;;;66.27;62.73;;;;;;;;;;5114598;28;20508;-78
2023/11/11 02:33:24;;;;;;;65.93;62.33;;;;;;;;;;5113867;28;20808;-80
2023/11/11 02:35:51;;;;;;;63.87;60.17;;;;;;;;;;5113857;28;20451;-79
2023/11/11 02:38:18;;;;;;;65.97;62.47;;;;;;;;;;5114351;28;20474;-79
2023/11/11 02:40:46;;;;;;;67.20;63.50;;;;;;;;;;5113970;28;20444;-78
2023/11/11 02:43:13;;;;;;;66.70;63.10;;;;;;;;;;5116210;28;20499;-79
2023/11/11 02:45:40;;;;;;;62.57;59.17;;;;;;;;;;5133751;28;20410;-80
2023/11/11 02:48:07;;;;;;;62.00;58.60;;;;;;;;;;5134998;28;20470;-79
2023/11/11 02:50:34;;;;;;;63.23;59.83;;;;;;;;;;5134433;28;20497;-78
2023/11/11 02:53:02;;;;;;;57.60;54.30;;;;;;;;;;5134192;28;20792;-80
2023/11/11 02:55:29;;;;;;;58.33;54.97;;;;;;;;;;5133794;28;20449;-79
2023/11/11 02:57:59;;;;;;;58.93;55.43;;;;;;;;;;5134226;28;20442;-80
2023/11/11 03:00:28;;;;;;;62.13;58.70;;;;;;;;;;5134788;28;20434;-78
2023/11/11 03:02:55;;;;;;;58.35;54.88;;;;;;;;;;5134067;28;20537;-78
2023/11/11 03:05:22;;;;;;;57.97;54.47;;;;;;;;;;5133150;28;20212;-79
2023/11/11 03:07:49;;;;;;;58.17;54.57;;;;;;;;;;5133527;28;20441;-79
2023/11/11 03:10:16;;;;;;;61.57;57.97;;;;;;;;;;5133410;28;20482;-78
2023/11/11 03:12:43;;;;;;;61.93;58.33;;;;;;;;;;5133748;28;20788;-78
2023/11/11 03:15:12;;;;;;;62.53;59.03;;;;;;;;;;5133186;28;20449;-79
2023/11/11 03:17:39;;;;;;;64.33;60.63;;;;;;;;;;5133777;28;20470;-79
2023/11/11 03:20:08;;;;;;;58.97;55.37;;;;;;;;;;5133127;28;20446;-79
2023/11/11 03:22:35;;;;;;;59.87;56.27;;;;;;;;;;5132502;28;20441;-80
2023/11/11 03:25:03;;;;;;;59.50;56.00;;;;;;;;;;5132858;28;20463;-79
2023/11/11 03:27:30;;;;;;;61.13;57.63;;;;;;;;;;5132451;28;20863;-78
2023/11/11 03:29:58;;;;;;;57.10;53.50;;;;;;;;;;5132943;28;20454;-79
2023/11/11 03:32:27;;;;;;;60.47;56.40;;;;;;;;;;5133052;28;20424;-80
2023/11/11 03:34:54;;;;;;;63.83;59.40;;;;;;;;;;5132518;28;20802;-78
2023/11/11 03:37:21;;;;;;;63.17;58.70;;;;;;;;;;5132903;28;20463;-79
2023/11/11 03:39:48;;;;;;;70.80;65.97;;;;;;;;;;5133028;28;20417;-78
2023/11/11 03:42:15;;;;;;;67.37;62.00;;;;;;;;;;5132717;28;20221;-79
2023/11/11 03:44:41;;;;;;;62.10;57.37;;;;;;;;;;5132762;28;20455;-79
2023/11/11 03:47:08;;;;;;;66.13;60.00;;;;;;;;;;5132946;28;20470;-80
2023/11/11 03:49:38;;;;;;;64.87;60.00;;;;;;;;;;5124451;28;20486;-80
2023/11/11 03:52:06;;;;;;;63.37;58.47;;;;;;;;;;5134643;27;20930;-80
2023/11/11 03:54:33;;;;;;;60.90;56.37;;;;;;;;;;5136647;27;20455;-78
2023/11/11 03:57:00;;;;;;;63.03;58.60;;;;;;;;;;5137446;27;20448;-80
2023/11/11 03:59:27;;;;;;;64.20;59.53;;;;;;;;;;5137299;27;20793;-79
2023/11/11 04:01:54;;;;;;;63.83;58.60;;;;;;;;;;5136855;27;20480;-79
2023/11/11 04:04:22;;;;;;;66.50;61.30;;;;;;;;;;5136025;27;20448;-79
2023/11/11 04:06:50;;;;;;;64.90;59.60;;;;;;;;;;5136246;27;20851;-78
2023/11/11 04:09:17;;;;;;;65.87;61.80;;;;;;;;;;5136096;27;20483;-79
2023/11/11 04:11:44;;;;;;;68.37;63.27;;;;;;;;;;5136586;27;20418;-80
2023/11/11 04:14:11;;;;;;;65.37;60.53;;;;;;;;;;5136499;27;20442;-78
2023/11/11 04:16:38;;;;;;;66.57;61.07;;;;;;;;;;5136615;27;20421;-78
2023/11/11 04:19:05;;;;;;;67.03;61.80;;;;;;;;;;5136689;27;21002;-80
2023/11/11 04:21:32;;;;;;;67.80;62.77;;;;;;;;;;5136581;27;20789;-79
2023/11/11 04:24:01;;;;;;;67.60;62.30;;;;;;;;;;5136208;27;20425;-78
2023/11/11 04:26:28;;;;;;;66.20;61.10;;;;;;;;;;5136004;27;20429;-78
2023/11/11 04:28:55;;;;;;;71.47;64.60;;;;;;;;;;5135745;27;20454;-79
2023/11/11 04:31:23;;;;;;;69.03;63.73;;;;;;;;;;5136367;27;20450;-79
2023/11/11 04:33:50;;;;;;;63.50;59.00;;;;;;;;;;5135433;27;20471;-79
2023/11/11 04:36:17;;;;;;;65.03;59.73;;;;;;;;;;5135838;27;20455;-80
2023/11/11 04:38:44;;;;;;;71.40;65.57;;;;;;;;;;5135046;27;20460;-79
2023/11/11 04:41:13;;;;;;;67.37;61.33;;;;;;;;;;5134991;27;21108;-80
2023/11/11 04:43:41;;;;;;;67.07;61.20;;;;;;;;;;5135487;27;20446;-80
2023/11/11 04:46:08;;;;;;;67.77;60.90;;;;;;;;;;5134640;27;20923;-78
2023/11/11 04:48:36;;;;;;;68.77;63.07;;;;;;;;;;5135246;27;20471;-79
2023/11/11 04:51:03;;;;;;;68.23;61.80;;;;;;;;;;5135766;27;20578;-79
2023/11/11 04:53:30;;;;;;;69.40;62.53;;;;;;;;;;5135197;27;20447;-81
2023/11/11 04:55:57;;;;;;;71.27;60.17;;;;;;;;;;5134735;27;20443;-79
2023/11/11 04:58:26;;;;;;;64.87;58.90;;;;;;;;;;5134997;27;20462;-80
2023/11/11 05:00:53;;;;;;;67.13;60.07;;;;;;;;;;5134775;27;20419;-78
2023/11/11 05:03:20;;;;;;;67.73;61.37;;;;;;;;;;5134423;27;20451;-79
2023/11/11 05:05:47;;;;;;;62.33;56.07;;;;;;;;;;5133821;27;20443;-78
2023/11/11 05:08:14;;;;;;;62.80;56.97;;;;;;;;;;5134279;27;20566;-79
2023/11/11 05:10:41;;;;;;;70.93;63.80;;;;;;;;;;5134089;27;20962;-79
2023/11/11 05:13:09;;;;;;;69.67;62.97;;;;;;;;;;5134280;27;20459;-79
2023/11/11 05:15:42;;;;;;;67.07;60.70;;;;;;;;;;5133397;27;20451;-80
2023/11/11 05:18:10;;;;;;;70.10;63.47;;;;;;;;;;5134249;27;20519;-78
2023/11/11 05:20:39;;;;;;;67.50;60.97;;;;;;;;;;5134409;27;20529;-79
2023/11/11 05:23:06;;;;;;;67.90;61.33;;;;;;;;;;5134460;27;20454;-80
2023/11/11 05:25:33;;;;;;;66.97;60.87;;;;;;;;;;5134026;27;20504;-79
2023/11/11 05:28:00;;;;;;;68.70;62.77;;;;;;;;;;5134509;27;20550;-79
2023/11/11 05:30:27;;;;;;;66.53;60.83;;;;;;;;;;5134332;27;20590;-79
2023/11/11 05:32:56;;;;;;;57.83;53.20;;;;;;;;;;5134209;27;20470;-79
2023/11/11 05:35:23;;;;;;;64.63;58.93;;;;;;;;;;5133205;27;20453;-80
2023/11/11 05:37:50;;;;;;;62.17;56.97;;;;;;;;;;5133950;27;20474;-79
2023/11/11 05:40:17;;;;;;;67.07;61.57;;;;;;;;;;5133905;27;20417;-79
2023/11/11 05:42:46;;;;;;;60.70;55.33;;;;;;;;;;5133090;27;21175;-80
2023/11/11 05:45:14;;;;;;;69.00;62.67;;;;;;;;;;5132542;27;20446;-78
2023/11/11 05:47:42;;;;;;;66.00;60.50;;;;;;;;;;5133512;27;20470;-78
2023/11/11 05:50:11;;;;;;;63.83;58.70;;;;;;;;;;5133483;27;20569;-79
2023/11/11 05:52:38;;;;;;;65.23;60.00;;;;;;;;;;5112770;28;20454;-80
2023/11/11 05:55:06;;;;;;;64.77;59.37;;;;;;;;;;5112326;28;20794;-80
2023/11/11 05:57:33;;;;;;;68.57;62.47;;;;;;;;;;5111965;28;20562;-79
2023/11/11 06:00:00;;;;;;;71.80;66.00;;;;;;;;;;5112191;28;20440;-78
2023/11/11 06:02:27;;;;;;;68.63;63.50;;;;;;;;;;5111935;28;20469;-78
2023/11/11 06:04:54;;;;;;;74.70;68.40;;;;;;;;;;5111379;28;20434;-80
2023/11/11 06:07:23;;;;;;;74.50;68.53;;;;;;;;;;5112517;28;20473;-79
2023/11/11 06:09:50;;;;;;;80.17;73.40;;;;;;;;;;5112009;28;20472;-80
2023/11/11 06:12:17;;;;;;;67.13;62.70;;;;;;;;;;5111919;28;20414;-79
2023/11/11 06:14:44;;;;;;;74.13;68.43;;;;;;;;;;5118863;28;20451;-79
2023/11/11 06:17:11;;;;;;;71.37;65.67;;;;;;;;;;5132238;27;20463;-80
2023/11/11 06:19:38;;;;;;;74.57;68.93;;;;;;;;;;5113368;27;20479;-80
2023/11/11 06:22:05;;;;;;;74.43;68.93;;;;;;;;;;5111463;28;20422;-79
2023/11/11 06:24:33;;;;;;;65.97;61.67;;;;;;;;;;5111203;28;20418;-80
2023/11/11 06:27:00;;;;;;;71.53;65.63;;;;;;;;;;5111033;28;20528;-79
2023/11/11 06:29:27;;;;;;;75.57;70.33;;;;;;;;;;5111566;28;20436;-78
2023/11/11 06:31:54;;;;;;;87.90;81.40;;;;;;;;;;5111903;28;20462;-79
2023/11/11 06:34:21;;;;;;;85.20;79.20;;;;;;;;;;5111311;28;20454;-79
2023/11/11 06:36:48;;;;;;;91.33;84.37;;;;;;;;;;5111934;28;20506;-80
2023/11/11 06:39:15;;;;;;;92.22;85.38;;;;;;;;;;5111975;28;20421;-80
2023/11/11 06:41:43;;;;;;;92.47;84.87;;;;;;;;;;5111667;28;20213;-78
2023/11/11 06:44:10;;;;;;;94.67;87.17;;;;;;;;;;5111177;28;20410;-80
2023/11/11 06:46:37;;;;;;;91.77;84.67;;;;;;;;;;5111386;28;20426;-78
2023/11/11 06:49:04;;;;;;;94.13;86.70;;;;;;;;;;5111205;28;21065;-79
2023/11/11 06:51:33;;;;;;;91.22;82.88;;;;;;;;;;5111243;28;20884;-80
2023/11/11 06:54:01;;;;;;;95.60;87.50;;;;;;;;;;5111014;28;20210;-79
2023/11/11 06:56:28;;;;;;;90.68;82.10;;;;;;;;;;5111663;28;20443;-78
2023/11/11 06:58:56;;;;;;;88.63;82.23;;;;;;;;;;5111632;28;20228;-80
2023/11/11 07:01:23;;;;;;;94.57;87.23;;;;;;;;;;5111031;28;20484;-78
2023/11/11 07:03:51;;;;;;;83.43;77.97;;;;;;;;;;5110925;28;20439;-78
2023/11/11 07:06:22;;;;;;;94.07;86.07;;;;;;;;;;5111271;28;20758;-78
2023/11/11 07:08:50;;;;;;;91.47;85.17;;;;;;;;;;5111281;28;20222;-79
2023/11/11 07:11:17;;;;;;;93.10;86.77;;;;;;;;;;5111055;28;20511;-80
2023/11/11 07:13:44;;;;;;;91.50;84.75;;;;;;;;;;5110797;28;20479;-78
2023/11/11 07:16:16;;;;;;;91.78;84.43;;;;;;;;;;5111177;28;20206;-80
2023/11/11 07:18:43;;;;;;;76.07;70.80;;;;;;;;;;5110979;28;20287;-80
2023/11/11 07:21:18;;;;;;;92.35;85.47;;;;;;;;;;5110554;28;20452;-79
2023/11/11 07:23:46;;;;;;;91.83;84.73;;;;;;;;;;5110603;28;20756;-78
2023/11/11 07:26:15;;;;;;;94.70;87.50;;;;;;;;;;5111231;28;20448;-80
2023/11/11 07:28:42;;;;;;;78.50;72.70;;;;;;;;;;5115500;28;20464;-78
2023/11/11 07:31:10;;;;;;;85.80;79.70;;;;;;;;;;5115098;28;20483;-78
2023/11/11 07:33:38;;;;;;;81.07;74.97;;;;;;;;;;5115040;28;20447;-80
2023/11/11 07:36:07;;;;;;;85.60;79.07;;;;;;;;;;5114763;28;20447;-77
2023/11/11 07:38:34;;;;;;;82.20;75.70;;;;;;;;;;5113663;28;20973;-77
2023/11/11 07:41:01;;;;;;;83.13;76.80;;;;;;;;;;5113887;28;20656;-77
2023/11/11 07:43:29;;;;;;;74.33;69.43;;;;;;;;;;5114515;28;20456;-79
2023/11/11 07:45:56;;;;;;;77.30;71.30;;;;;;;;;;5114958;28;20450;-78
2023/11/11 07:48:24;;;;;;;72.07;66.80;;;;;;;;;;5114899;28;20460;-80
2023/11/11 07:50:52;;;;;;;74.33;67.77;;;;;;;;;;5112933;28;20921;-76
2023/11/11 07:53:20;;;;;;;69.10;64.17;;;;;;;;;;5113325;28;20858;-77
2023/11/11 07:55:48;;;;;;;69.93;64.70;;;;;;;;;;5112751;28;20452;-78
2023/11/11 07:58:15;;;;;;;72.47;67.13;;;;;;;;;;5113081;28;20449;-78
2023/11/11 08:00:42;;;;;;;65.80;61.13;;;;;;;;;;5113299;28;20430;-77
2023/11/11 08:03:10;;;;;;;68.73;63.60;;;;;;;;;;5113230;28;20501;-77
2023/11/11 08:05:36;;;;;;;70.13;65.03;;;;;;;;;;5112682;28;20451;-76
2023/11/11 08:08:05;;;;;;;73.13;68.10;;;;;;;;;;5115955;27;20497;-79
2023/11/11 08:10:32;;;;;;;74.50;69.47;;;;;;;;;;5113476;28;20487;-78
2023/11/11 08:13:00;;;;;;;73.30;68.10;;;;;;;;;;5112724;28;20464;-77
2023/11/11 08:15:27;;;;;;;78.10;72.30;;;;;;;;;;5112488;28;20474;-77
2023/11/11 08:17:54;;;;;;;69.33;64.43;;;;;;;;;;5113186;28;20474;-79
2023/11/11 08:20:21;;;;;;;68.27;64.27;;;;;;;;;;5112524;28;20442;-75
2023/11/11 08:22:49;;;;;;;61.73;58.07;;;;;;;;;;5113985;28;20448;-79
2023/11/11 08:25:21;;;;;;;57.20;54.00;;;;;;;;;;5112429;28;20458;-76
2023/11/11 08:27:50;;;;;;;61.67;57.60;;;;;;;;;;5112880;28;20441;-77
2023/11/11 08:30:17;;;;;;;57.83;54.40;;;;;;;;;;5113528;28;20444;-76
2023/11/11 08:32:44;;;;;;;58.80;54.80;;;;;;;;;;5113293;28;20544;-77
2023/11/11 08:35:15;;;;;;;58.13;54.30;;;;;;;;;;5112278;28;20493;-76
2023/11/11 08:37:43;;;;;;;58.27;54.77;;;;;;;;;;5112316;28;20480;-76
2023/11/11 08:40:11;;;;;;;60.80;56.57;;;;;;;;;;5112459;28;20509;-75
2023/11/11 08:42:40;;;;;;;56.43;53.07;;;;;;;;;;5112468;28;20482;-75
2023/11/11 08:45:09;;;;;;;52.93;49.87;;;;;;;;;;5112285;28;20478;-76
2023/11/11 08:47:36;;;;;;;55.80;52.50;;;;;;;;;;5118381;27;20471;-75
2023/11/11 08:50:06;;;;;;;51.30;47.77;;;;;;;;;;5133269;27;20448;-77
2023/11/11 08:52:33;;;;;;;52.60;49.65;;;;;;;;;;5133022;27;20483;-76
2023/11/11 08:55:00;;;;;;;46.20;43.37;;;;;;;;;;5132476;27;20225;-77
2023/11/11 08:57:28;;;;;;;42.07;39.90;;;;;;;;;;5112296;28;20484;-76
2023/11/11 08:59:56;;;;;;;40.03;37.20;;;;;;;;;;5128252;27;20443;-76
2023/11/11 09:02:23;;;;;;;33.80;31.80;;;;;;;;;;5133205;27;20432;-75
2023/11/11 09:04:52;;;;;;;34.10;31.90;;;;;;;;;;5130599;27;20446;-76
2023/11/11 09:07:19;;;;;;;32.93;31.00;;;;;;;;;;5128592;27;20468;-75
2023/11/11 09:09:47;;;;;;;31.50;29.73;;;;;;;;;;5113365;27;20500;-77
2023/11/11 09:12:14;;;;;;;34.63;32.40;;;;;;;;;;5118878;27;20478;-76
2023/11/11 09:14:41;;;;;;;29.83;28.13;;;;;;;;;;5110032;28;20475;-76
2023/11/11 09:17:10;;;;;;;30.37;28.57;;;;;;;;;;5112285;28;20483;-76
2023/11/11 09:19:37;;;;;;;28.80;27.00;;;;;;;;;;5111917;28;20980;-78
2023/11/11 09:22:04;;;;;;;25.13;23.93;;;;;;;;;;5111901;28;20563;-76
2023/11/11 09:24:32;;;;;;;29.80;27.80;;;;;;;;;;5111064;28;20423;-76
2023/11/11 09:26:59;;;;;;;29.70;28.10;;;;;;;;;;5114751;28;20873;-78
2023/11/11 09:29:27;;;;;;;26.57;25.20;;;;;;;;;;5115982;28;20568;-81
2023/11/11 09:31:54;;;;;;;24.00;22.70;;;;;;;;;;5116506;28;20458;-80
2023/11/11 09:34:23;;;;;;;26.17;24.67;;;;;;;;;;5117543;28;20430;-82
2023/11/11 09:36:50;;;;;;;24.10;22.90;;;;;;;;;;5117274;28;20445;-77
2023/11/11 09:39:17;;;;;;;24.10;22.80;;;;;;;;;;5114438;28;20505;-75
2023/11/11 09:41:44;;;;;;;24.83;23.43;;;;;;;;;;5111589;28;20802;-75
2023/11/11 09:44:11;;;;;;;25.47;24.10;;;;;;;;;;5110836;28;20493;-75
2023/11/11 09:46:40;;;;;;;25.27;23.90;;;;;;;;;;5122136;27;20897;-81
2023/11/11 09:49:09;;;;;;;23.87;22.67;;;;;;;;;;5120378;27;20495;-76
2023/11/11 09:51:39;;;;;;;25.50;23.80;;;;;;;;;;5126538;27;20848;-75
2023/11/11 09:54:06;;;;;;;23.90;22.70;;;;;;;;;;5138670;27;20496;-87
2023/11/11 09:56:34;;;;;;;21.33;20.43;;;;;;;;;;5133098;27;20446;-77
2023/11/11 09:59:01;;;;;;;22.90;21.60;;;;;;;;;;5131972;27;20520;-77
2023/11/11 10:01:28;;;;;;;21.53;20.43;;;;;;;;;;5130817;27;20810;-75
2023/11/11 10:03:56;;;;;;;20.40;19.33;;;;;;;;;;5132017;27;20535;-82
2023/11/11 10:06:24;;;;;;;22.03;20.63;;;;;;;;;;5141432;27;20810;-85
2023/11/11 10:08:52;;;;;;;19.70;18.80;;;;;;;;;;5121389;27;20511;-88
2023/11/11 10:11:19;;;;;;;21.57;20.37;;;;;;;;;;5122932;27;20456;-84
2023/11/11 10:13:46;;;;;;;19.17;18.30;;;;;;;;;;5136890;27;20435;-84
2023/11/11 10:16:18;;;;;;;18.63;17.73;;;;;;;;;;5119151;28;20444;-84
2023/11/11 10:18:46;;;;;;;19.13;18.23;;;;;;;;;;5112366;28;20476;-77
2023/11/11 10:21:13;;;;;;;18.40;17.53;;;;;;;;;;5111380;28;20477;-76
2023/11/11 10:23:41;;;;;;;18.33;17.43;;;;;;;;;;5115103;28;20476;-81
2023/11/11 10:26:09;;;;;;;19.40;18.40;;;;;;;;;;5114272;28;20487;-77
2023/11/11 10:28:36;;;;;;;17.60;16.80;;;;;;;;;;5114943;28;20502;-84
2023/11/11 10:31:07;;;;;;;19.00;18.00;;;;;;;;;;5122276;28;20452;-86
2023/11/11 10:33:35;;;;;;;20.27;19.17;;;;;;;;;;5122151;28;20456;-85
2023/11/11 10:36:03;;;;;;;21.43;20.17;;;;;;;;;;5121292;28;20516;-84
2023/11/11 10:38:30;;;;;;;19.33;18.23;;;;;;;;;;5122124;28;20460;-82
2023/11/11 10:40:57;;;;;;;17.27;16.57;;;;;;;;;;5117814;28;20457;-76
2023/11/11 10:43:26;;;;;;;18.60;17.70;;;;;;;;;;5110560;28;20443;-78
2023/11/11 10:45:53;;;;;;;18.20;17.20;;;;;;;;;;5110892;28;20467;-78
2023/11/11 10:48:23;;;;;;;18.27;17.37;;;;;;;;;;5112430;28;20472;-75
2023/11/11 10:50:51;;;;;;;17.73;16.93;;;;;;;;;;5112258;28;20531;-77
2023/11/11 10:53:19;;;;;;;18.13;17.23;;;;;;;;;;5111412;28;20559;-77
2023/11/11 10:55:49;;;;;;;19.63;18.50;;;;;;;;;;5111401;28;20866;-78
2023/11/11 10:58:17;;;;;;;18.47;17.20;;;;;;;;;;5110931;28;20844;-76
2023/11/11 11:00:46;;;;;;;18.00;17.20;;;;;;;;;;5112239;28;20440;-77
2023/11/11 11:03:13;;;;;;;17.27;16.37;;;;;;;;;;5115218;28;20444;-81
2023/11/11 11:05:42;;;;;;;19.07;18.07;;;;;;;;;;5114873;28;20448;-77
2023/11/11 11:08:13;;;;;;;18.50;17.43;;;;;;;;;;5115938;28;20467;-76
2023/11/11 11:10:45;;;;;;;18.73;17.60;;;;;;;;;;5117895;28;20464;-83
2023/11/11 11:13:15;;;;;;;17.77;16.73;;;;;;;;;;5119317;28;20517;-78
2023/11/11 11:15:45;;;;;;;18.47;17.57;;;;;;;;;;5119021;28;20551;-80
2023/11/11 11:18:14;;;;;;;18.10;17.00;;;;;;;;;;5119949;28;20448;-79
2023/11/11 11:20:42;;;;;;;19.00;17.80;;;;;;;;;;5117828;28;20420;-79
2023/11/11 11:23:12;;;;;;;18.93;17.83;;;;;;;;;;5120607;28;20432;-78
2023/11/11 11:25:41;;;;;;;18.50;17.40;;;;;;;;;;5117085;28;20443;-79
2023/11/11 11:28:22;;;;;;;20.40;19.20;;;;;;;;;;5116051;28;21027;-78
2023/11/11 11:30:50;;;;;;;20.60;19.30;;;;;;;;;;5123535;28;20470;-81
2023/11/11 11:33:19;;;;;;;19.50;18.20;;;;;;;;;;5117004;28;20575;-78
2023/11/11 11:35:47;;;;;;;20.67;19.47;;;;;;;;;;5116318;28;20892;-78
2023/11/11 11:38:18;;;;;;;19.07;17.97;;;;;;;;;;5118102;28;20820;-82
2023/11/11 11:40:49;;;;;;;22.00;20.60;;;;;;;;;;5120090;28;21057;-81
2023/11/11 11:43:23;;;;;;;19.80;18.60;;;;;;;;;;5118527;28;20475;-81
2023/11/11 11:45:51;;;;;;;22.50;21.00;;;;;;;;;;5120316;28;20955;-81
2023/11/11 11:48:20;;;;;;;21.60;20.10;;;;;;;;;;5121224;28;21220;-82
2023/11/11 11:50:47;;;;;;;19.13;18.00;;;;;;;;;;5119803;28;20414;-78
2023/11/11 11:53:14;;;;;;;25.23;23.43;;;;;;;;;;5113967;28;20511;-78
2023/11/11 11:55:41;;;;;;;24.17;22.33;;;;;;;;;;5115110;28;20440;-79
2023/11/11 11:58:08;;;;;;;23.50;22.10;;;;;;;;;;5115842;28;20472;-78
2023/11/11 12:00:39;;;;;;;25.40;23.50;;;;;;;;;;5115396;28;20450;-78
2023/11/11 12:03:07;;;;;;;20.80;19.70;;;;;;;;;;5115018;28;20420;-79
2023/11/11 12:05:35;;;;;;;26.97;25.10;;;;;;;;;;5114456;28;20826;-78
2023/11/11 12:08:04;;;;;;;76.22;64.32;;;;;;;;;;5116003;28;20464;-78
2023/11/11 12:10:44;;;;;;;34.43;31.67;;;;;;;;;;5114051;28;20237;-78
2023/11/11 12:13:12;;;;;;;28.10;25.80;;;;;;;;;;5116248;27;21293;-83
2023/11/11 12:15:39;;;;;;;64.53;54.23;;;;;;;;;;5116944;28;20440;-79
2023/11/11 12:18:09;;;;;;;192.30;144.77;;;;;;;;;;5116679;28;20944;-79
2023/11/11 12:20:41;;;;;;;70.77;64.60;;;;;;;;;;5119053;28;20463;-81
2023/11/11 12:23:10;;;;;;;43.40;40.40;;;;;;;;;;5116698;28;20462;-79
2023/11/11 12:25:39;;;;;;;31.30;29.40;;;;;;;;;;5118003;28;20467;-81
2023/11/11 12:28:06;;;;;;;38.07;34.90;;;;;;;;;;5118082;28;20559;-81
2023/11/11 12:30:34;;;;;;;34.67;31.97;;;;;;;;;;5118782;28;20433;-78
2023/11/11 12:33:05;;;;;;;36.47;33.17;;;;;;;;;;5117288;28;20475;-82
2023/11/11 12:35:33;;;;;;;30.47;28.03;;;;;;;;;;5116651;28;20471;-80
2023/11/11 12:38:21;;;;;;;32.57;30.23;;;;;;;;;;5117109;28;20474;-80
2023/11/11 12:40:48;;;;;;;28.13;25.90;;;;;;;;;;5117920;28;20432;-81
2023/11/11 12:43:16;;;;;;;30.60;28.40;;;;;;;;;;5116799;28;20462;-79
2023/11/11 12:45:46;;;;;;;33.43;31.13;;;;;;;;;;5115753;28;20507;-79
2023/11/11 12:48:16;;;;;;;35.80;33.23;;;;;;;;;;5116353;28;20463;-80
2023/11/11 12:50:44;;;;;;;32.10;30.03;;;;;;;;;;5113611;28;20919;-77
2023/11/11 12:53:14;;;;;;;34.53;32.03;;;;;;;;;;5112492;28;20840;-77
2023/11/11 12:55:42;;;;;;;33.50;30.70;;;;;;;;;;5112109;28;20838;-77
2023/11/11 12:58:26;;;;;;;34.77;32.37;;;;;;;;;;5112005;28;21104;-79
2023/11/11 13:00:55;;;;;;;36.23;33.80;;;;;;;;;;5111926;28;20932;-77
2023/11/11 13:03:25;;;;;;;35.70;33.03;;;;;;;;;;5112262;28;20475;-77
2023/11/11 13:05:53;;;;;;;39.00;36.30;;;;;;;;;;5111624;28;20468;-76
2023/11/11 13:08:22;;;;;;;41.80;38.60;;;;;;;;;;5112141;28;20468;-77
2023/11/11 13:10:51;;;;;;;31.03;28.77;;;;;;;;;;5111937;28;20537;-77
2023/11/11 13:13:18;;;;;;;40.20;36.33;;;;;;;;;;5112225;28;20492;-78
2023/11/11 13:15:47;;;;;;;36.10;33.37;;;;;;;;;;5111317;28;20928;-77
2023/11/11 13:18:15;;;;;;;37.20;34.13;;;;;;;;;;5111984;28;20511;-78
2023/11/11 13:20:42;;;;;;;30.17;28.17;;;;;;;;;;5112129;28;20448;-77
2023/11/11 13:23:09;;;;;;;35.50;32.63;;;;;;;;;;5112008;28;20484;-78
2023/11/11 13:25:38;;;;;;;37.63;34.93;;;;;;;;;;5111204;28;20513;-78
2023/11/11 13:28:05;;;;;;;34.23;31.70;;;;;;;;;;5111792;28;20968;-78
2023/11/11 13:30:32;;;;;;;35.97;33.07;;;;;;;;;;5111740;28;20837;-77
2023/11/11 13:33:00;;;;;;;33.47;31.07;;;;;;;;;;5111932;28;20491;-77
2023/11/11 13:35:27;;;;;;;38.03;35.20;;;;;;;;;;5109983;28;20478;-77
2023/11/11 13:37:56;;;;;;;36.63;33.23;;;;;;;;;;5113680;28;20495;-79
2023/11/11 13:40:28;;;;;;;37.75;33.53;;;;;;;;;;5117404;28;20433;-79
2023/11/11 13:42:56;;;;;;;36.30;33.60;;;;;;;;;;5114734;28;20241;-76
2023/11/11 13:45:24;;;;;;;47.17;42.17;;;;;;;;;;5111053;28;20853;-77
2023/11/11 13:47:52;;;;;;;38.50;35.60;;;;;;;;;;5112982;28;20556;-78
2023/11/11 13:50:21;;;;;;;43.33;36.30;;;;;;;;;;5112465;28;20443;-78
2023/11/11 13:52:49;;;;;;;36.60;33.90;;;;;;;;;;5112417;28;20499;-78
2023/11/11 13:55:16;;;;;;;38.33;35.27;;;;;;;;;;5110922;28;20455;-75
2023/11/11 13:57:45;;;;;;;37.27;34.27;;;;;;;;;;5109943;28;20472;-76
2023/11/11 14:00:20;;;;;;;37.73;34.17;;;;;;;;;;5110692;28;20452;-75
2023/11/11 14:02:47;;;;;;;45.97;41.23;;;;;;;;;;5111352;28;20424;-76
2023/11/11 14:05:14;;;;;;;45.00;40.67;;;;;;;;;;5111900;28;20872;-77
2023/11/11 14:07:42;;;;;;;41.13;37.53;;;;;;;;;;5111261;28;20475;-76
2023/11/11 14:10:12;;;;;;;37.70;34.87;;;;;;;;;;5111324;28;20514;-76
2023/11/11 14:12:42;;;;;;;42.97;39.37;;;;;;;;;;5111218;28;20487;-76
2023/11/11 14:15:13;;;;;;;32.20;29.97;;;;;;;;;;5111113;28;20444;-76
2023/11/11 14:17:42;;;;;;;32.27;29.97;;;;;;;;;;5111078;28;21079;-75
2023/11/11 14:20:11;;;;;;;40.73;37.53;;;;;;;;;;5111432;28;20444;-77